Cleveland, New York
Current Conditions -  °F | °C
As of 1:54 PM on Saturday 25 Oct 2014 (Local Time) from KSYR Reporting Station
Broken Clouds Broken Clouds  
Wind Chill: 65°   Ceiling: 10000
Heat Index: 65°   Visibility: 10mi
Dew Point: 47°   Wind: 16mph
Humidity: 52%   Direction: 240°WSW
Pressure: 29.64"   Gusts: NA
Location:  43.24°N, 75.88°W
Report Text: KSYR 251754Z 24014KT 10SM SCT043 BKN100 18/08 A2964 RMK AO2 SLP032 T01830083 10183 20106 56041
Loading
Personal Weather Stations






























Interactive Weather Map
Tropical Storm Tracking
New forecast layout! Learn more

10-Day Weather Forecast

Advertisements
Track Severe Weather on mobile